sensor_id;sensor_type;location;lat;lon;timestamp;temperature;humidity
45549;DHT22;31270;48.328;10.096;2023-12-20T00:00:56;4.40;99.90
45549;DHT22;31270;48.328;10.096;2023-12-20T00:03:22;4.50;99.90
45549;DHT22;31270;48.328;10.096;2023-12-20T00:05:49;4.50;99.90
45549;DHT22;31270;48.328;10.096;2023-12-20T00:08:16;4.50;99.90
45549;DHT22;31270;48.328;10.096;2023-12-20T00:10:41;4.50;99.90
45549;DHT22;31270;48.328;10.096;2023-12-20T00:13:07;4.50;99.90
45549;DHT22;31270;48.328;10.096;2023-12-20T00:15:33;4.50;99.90
45549;DHT22;31270;48.328;10.096;2023-12-20T00:17:59;4.60;99.90
45549;DHT22;31270;48.328;10.096;2023-12-20T00:20:24;4.60;99.90
45549;DHT22;31270;48.328;10.096;2023-12-20T00:22:50;4.60;99.90
45549;DHT22;31270;48.328;10.096;2023-12-20T00:25:16;4.60;99.90
45549;DHT22;31270;48.328;10.096;2023-12-20T00:27:41;4.60;99.90
45549;DHT22;31270;48.328;10.096;2023-12-20T00:30:08;4.60;99.90
45549;DHT22;31270;48.328;10.096;2023-12-20T00:32:35;4.60;99.90
45549;DHT22;31270;48.328;10.096;2023-12-20T00:35:00;4.60;99.90
45549;DHT22;31270;48.328;10.096;2023-12-20T00:37:26;4.60;99.90
45549;DHT22;31270;48.328;10.096;2023-12-20T00:39:52;4.60;99.90
45549;DHT22;31270;48.328;10.096;2023-12-20T00:42:17;4.60;99.90
45549;DHT22;31270;48.328;10.096;2023-12-20T00:44:43;4.60;99.90
45549;DHT22;31270;48.328;10.096;2023-12-20T00:47:08;4.60;99.90
45549;DHT22;31270;48.328;10.096;2023-12-20T00:49:34;4.50;99.90
45549;DHT22;31270;48.328;10.096;2023-12-20T00:52:00;4.50;99.90
45549;DHT22;31270;48.328;10.096;2023-12-20T00:54:25;4.50;99.90
45549;DHT22;31270;48.328;10.096;2023-12-20T00:56:51;4.50;99.90
45549;DHT22;31270;48.328;10.096;2023-12-20T00:59:17;4.50;99.90
45549;DHT22;31270;48.328;10.096;2023-12-20T01:01:43;4.50;99.90
45549;DHT22;31270;48.328;10.096;2023-12-20T01:04:09;4.50;99.90
45549;DHT22;31270;48.328;10.096;2023-12-20T01:06:34;4.50;99.90
45549;DHT22;31270;48.328;10.096;2023-12-20T01:09:00;4.40;99.90
45549;DHT22;31270;48.328;10.096;2023-12-20T01:11:25;4.50;99.90
45549;DHT22;31270;48.328;10.096;2023-12-20T01:13:51;4.40;99.90
45549;DHT22;31270;48.328;10.096;2023-12-20T01:16:16;4.40;99.90
45549;DHT22;31270;48.328;10.096;2023-12-20T01:18:42;4.40;99.90
45549;DHT22;31270;48.328;10.096;2023-12-20T01:21:07;4.40;99.90
45549;DHT22;31270;48.328;10.096;2023-12-20T01:23:33;4.30;99.90
45549;DHT22;31270;48.328;10.096;2023-12-20T01:25:59;4.30;99.90
45549;DHT22;31270;48.328;10.096;2023-12-20T01:28:28;4.30;99.90
45549;DHT22;31270;48.328;10.096;2023-12-20T01:30:54;4.30;99.90
45549;DHT22;31270;48.328;10.096;2023-12-20T01:33:19;4.40;99.90
45549;DHT22;31270;48.328;10.096;2023-12-20T01:35:45;4.30;99.90
45549;DHT22;31270;48.328;10.096;2023-12-20T01:38:10;4.30;99.90
45549;DHT22;31270;48.328;10.096;2023-12-20T01:40:36;4.30;99.90
45549;DHT22;31270;48.328;10.096;2023-12-20T01:43:06;4.30;99.90
45549;DHT22;31270;48.328;10.096;2023-12-20T01:45:32;4.30;99.90
45549;DHT22;31270;48.328;10.096;2023-12-20T01:47:58;4.30;99.90
45549;DHT22;31270;48.328;10.096;2023-12-20T01:50:25;4.30;99.90
45549;DHT22;31270;48.328;10.096;2023-12-20T01:52:52;4.30;99.90
45549;DHT22;31270;48.328;10.096;2023-12-20T01:55:21;4.30;99.90
45549;DHT22;31270;48.328;10.096;2023-12-20T01:57:47;4.30;99.90
45549;DHT22;31270;48.328;10.096;2023-12-20T02:00:13;4.30;99.90
45549;DHT22;31270;48.328;10.096;2023-12-20T02:02:40;4.30;99.90
45549;DHT22;31270;48.328;10.096;2023-12-20T02:05:07;4.30;99.90
45549;DHT22;31270;48.328;10.096;2023-12-20T02:07:33;4.20;99.90
45549;DHT22;31270;48.328;10.096;2023-12-20T02:10:01;4.20;99.90
45549;DHT22;31270;48.328;10.096;2023-12-20T02:12:26;4.20;99.90
45549;DHT22;31270;48.328;10.096;2023-12-20T02:14:52;4.20;99.90
45549;DHT22;31270;48.328;10.096;2023-12-20T02:17:19;4.20;99.90
45549;DHT22;31270;48.328;10.096;2023-12-20T02:19:45;4.20;99.90
45549;DHT22;31270;48.328;10.096;2023-12-20T02:22:11;4.20;99.90
45549;DHT22;31270;48.328;10.096;2023-12-20T02:24:37;4.20;99.90
45549;DHT22;31270;48.328;10.096;2023-12-20T02:27:03;4.10;99.90
45549;DHT22;31270;48.328;10.096;2023-12-20T02:29:31;4.20;99.90
45549;DHT22;31270;48.328;10.096;2023-12-20T02:35:18;4.10;99.90
45549;DHT22;31270;48.328;10.096;2023-12-20T02:37:43;4.10;99.90
45549;DHT22;31270;48.328;10.096;2023-12-20T02:40:09;4.10;99.90
45549;DHT22;31270;48.328;10.096;2023-12-20T02:42:35;4.10;99.90
45549;DHT22;31270;48.328;10.096;2023-12-20T02:45:01;4.00;99.90
45549;DHT22;31270;48.328;10.096;2023-12-20T02:47:27;4.10;99.90
45549;DHT22;31270;48.328;10.096;2023-12-20T02:49:52;4.00;99.90
45549;DHT22;31270;48.328;10.096;2023-12-20T02:52:18;4.00;99.90
45549;DHT22;31270;48.328;10.096;2023-12-20T02:54:44;4.00;99.90
45549;DHT22;31270;48.328;10.096;2023-12-20T02:57:09;4.00;99.90
45549;DHT22;31270;48.328;10.096;2023-12-20T02:59:35;4.00;99.90
45549;DHT22;31270;48.328;10.096;2023-12-20T03:02:00;4.00;99.90
45549;DHT22;31270;48.328;10.096;2023-12-20T03:04:26;4.00;99.90
45549;DHT22;31270;48.328;10.096;2023-12-20T03:06:52;4.00;99.90
45549;DHT22;31270;48.328;10.096;2023-12-20T03:09:17;4.00;99.90
45549;DHT22;31270;48.328;10.096;2023-12-20T03:11:43;3.90;99.90
45549;DHT22;31270;48.328;10.096;2023-12-20T03:14:08;4.00;99.90
45549;DHT22;31270;48.328;10.096;2023-12-20T03:16:34;4.00;99.90
45549;DHT22;31270;48.328;10.096;2023-12-20T03:18:59;4.00;99.90
45549;DHT22;31270;48.328;10.096;2023-12-20T03:21:25;4.00;99.90
45549;DHT22;31270;48.328;10.096;2023-12-20T03:23:51;3.90;99.90
45549;DHT22;31270;48.328;10.096;2023-12-20T03:26:16;3.90;99.90
45549;DHT22;31270;48.328;10.096;2023-12-20T03:28:42;4.00;99.90
45549;DHT22;31270;48.328;10.096;2023-12-20T03:31:09;3.90;99.90
45549;DHT22;31270;48.328;10.096;2023-12-20T03:33:35;3.90;99.90
45549;DHT22;31270;48.328;10.096;2023-12-20T03:36:01;3.90;99.90
45549;DHT22;31270;48.328;10.096;2023-12-20T03:38:26;3.90;99.90
45549;DHT22;31270;48.328;10.096;2023-12-20T03:40:52;3.90;99.90
45549;DHT22;31270;48.328;10.096;2023-12-20T03:43:18;4.00;99.90
45549;DHT22;31270;48.328;10.096;2023-12-20T03:45:43;4.00;99.90
45549;DHT22;31270;48.328;10.096;2023-12-20T03:48:09;4.00;99.90
45549;DHT22;31270;48.328;10.096;2023-12-20T03:50:35;4.00;99.90
45549;DHT22;31270;48.328;10.096;2023-12-20T03:53:01;4.00;99.90
45549;DHT22;31270;48.328;10.096;2023-12-20T03:55:26;4.00;99.90
45549;DHT22;31270;48.328;10.096;2023-12-20T03:57:52;4.00;99.90
45549;DHT22;31270;48.328;10.096;2023-12-20T04:00:18;4.10;99.90
45549;DHT22;31270;48.328;10.096;2023-12-20T04:02:43;4.00;99.90
45549;DHT22;31270;48.328;10.096;2023-12-20T04:05:10;4.00;99.90
45549;DHT22;31270;48.328;10.096;2023-12-20T04:07:36;3.90;99.90
45549;DHT22;31270;48.328;10.096;2023-12-20T04:10:02;3.90;99.90
45549;DHT22;31270;48.328;10.096;2023-12-20T04:12:29;3.90;99.90
45549;DHT22;31270;48.328;10.096;2023-12-20T04:14:54;3.90;99.90
45549;DHT22;31270;48.328;10.096;2023-12-20T04:17:21;3.90;99.90
45549;DHT22;31270;48.328;10.096;2023-12-20T04:19:48;4.00;99.90
45549;DHT22;31270;48.328;10.096;2023-12-20T04:22:14;4.00;99.90
45549;DHT22;31270;48.328;10.096;2023-12-20T04:24:39;4.00;99.90
45549;DHT22;31270;48.328;10.096;2023-12-20T04:27:07;4.00;99.90
45549;DHT22;31270;48.328;10.096;2023-12-20T04:29:33;4.00;99.90
45549;DHT22;31270;48.328;10.096;2023-12-20T04:31:59;4.00;99.90
45549;DHT22;31270;48.328;10.096;2023-12-20T04:34:25;4.00;99.90
45549;DHT22;31270;48.328;10.096;2023-12-20T04:36:51;4.00;99.90
45549;DHT22;31270;48.328;10.096;2023-12-20T04:39:17;4.00;99.90
45549;DHT22;31270;48.328;10.096;2023-12-20T04:41:43;4.10;99.90
45549;DHT22;31270;48.328;10.096;2023-12-20T04:44:08;4.00;99.90
45549;DHT22;31270;48.328;10.096;2023-12-20T04:46:34;4.00;99.90
45549;DHT22;31270;48.328;10.096;2023-12-20T04:49:01;4.00;99.90
45549;DHT22;31270;48.328;10.096;2023-12-20T04:51:27;4.10;99.90
45549;DHT22;31270;48.328;10.096;2023-12-20T04:53:52;4.10;99.90
45549;DHT22;31270;48.328;10.096;2023-12-20T04:56:18;4.10;99.90
45549;DHT22;31270;48.328;10.096;2023-12-20T04:58:43;4.10;99.90
45549;DHT22;31270;48.328;10.096;2023-12-20T05:01:09;4.10;99.90
45549;DHT22;31270;48.328;10.096;2023-12-20T05:03:35;4.10;99.90
45549;DHT22;31270;48.328;10.096;2023-12-20T05:06:01;4.10;99.90
45549;DHT22;31270;48.328;10.096;2023-12-20T05:08:27;4.10;99.90
45549;DHT22;31270;48.328;10.096;2023-12-20T05:10:56;4.20;99.90
45549;DHT22;31270;48.328;10.096;2023-12-20T05:13:21;4.20;99.90
45549;DHT22;31270;48.328;10.096;2023-12-20T05:15:47;4.20;99.90
45549;DHT22;31270;48.328;10.096;2023-12-20T05:18:13;4.20;99.90
45549;DHT22;31270;48.328;10.096;2023-12-20T05:20:39;4.20;99.90
45549;DHT22;31270;48.328;10.096;2023-12-20T05:23:05;4.30;99.90
45549;DHT22;31270;48.328;10.096;2023-12-20T05:25:30;4.20;99.90
45549;DHT22;31270;48.328;10.096;2023-12-20T05:27:56;4.30;99.90
45549;DHT22;31270;48.328;10.096;2023-12-20T05:30:22;4.30;99.90
45549;DHT22;31270;48.328;10.096;2023-12-20T05:32:47;4.30;99.90
45549;DHT22;31270;48.328;10.096;2023-12-20T05:35:13;4.30;99.90
45549;DHT22;31270;48.328;10.096;2023-12-20T05:37:39;4.30;99.90
45549;DHT22;31270;48.328;10.096;2023-12-20T05:40:06;4.30;99.90
45549;DHT22;31270;48.328;10.096;2023-12-20T05:42:32;4.30;99.90
45549;DHT22;31270;48.328;10.096;2023-12-20T05:44:57;4.40;99.90
45549;DHT22;31270;48.328;10.096;2023-12-20T05:47:23;4.30;99.90
45549;DHT22;31270;48.328;10.096;2023-12-20T05:49:48;4.30;99.90
45549;DHT22;31270;48.328;10.096;2023-12-20T05:52:15;4.40;99.90
45549;DHT22;31270;48.328;10.096;2023-12-20T05:54:41;4.40;99.90
45549;DHT22;31270;48.328;10.096;2023-12-20T05:57:06;4.40;99.90
45549;DHT22;31270;48.328;10.096;2023-12-20T05:59:32;4.40;99.90
45549;DHT22;31270;48.328;10.096;2023-12-20T06:01:57;4.40;99.90
45549;DHT22;31270;48.328;10.096;2023-12-20T06:04:23;4.40;99.90
45549;DHT22;31270;48.328;10.096;2023-12-20T06:06:49;4.40;99.90
45549;DHT22;31270;48.328;10.096;2023-12-20T06:09:14;4.30;99.90
45549;DHT22;31270;48.328;10.096;2023-12-20T06:11:40;4.50;99.90
45549;DHT22;31270;48.328;10.096;2023-12-20T06:14:06;4.40;99.90
45549;DHT22;31270;48.328;10.096;2023-12-20T06:16:32;4.50;99.90
45549;DHT22;31270;48.328;10.096;2023-12-20T06:18:57;4.50;99.90
45549;DHT22;31270;48.328;10.096;2023-12-20T06:21:24;4.50;99.90
45549;DHT22;31270;48.328;10.096;2023-12-20T06:23:50;4.50;99.90
45549;DHT22;31270;48.328;10.096;2023-12-20T06:26:16;4.50;99.90
45549;DHT22;31270;48.328;10.096;2023-12-20T06:28:42;4.50;99.90
45549;DHT22;31270;48.328;10.096;2023-12-20T06:31:08;4.50;99.90
45549;DHT22;31270;48.328;10.096;2023-12-20T06:33:34;4.50;99.90
45549;DHT22;31270;48.328;10.096;2023-12-20T06:36:00;4.50;99.90
45549;DHT22;31270;48.328;10.096;2023-12-20T06:38:26;4.40;99.90
45549;DHT22;31270;48.328;10.096;2023-12-20T06:40:52;4.50;99.90
45549;DHT22;31270;48.328;10.096;2023-12-20T06:43:17;4.50;99.90
45549;DHT22;31270;48.328;10.096;2023-12-20T06:45:50;4.40;99.90
45549;DHT22;31270;48.328;10.096;2023-12-20T06:48:16;4.50;99.90
45549;DHT22;31270;48.328;10.096;2023-12-20T06:50:42;4.50;99.90
45549;DHT22;31270;48.328;10.096;2023-12-20T06:53:07;4.40;99.90
45549;DHT22;31270;48.328;10.096;2023-12-20T06:55:35;4.40;99.90
45549;DHT22;31270;48.328;10.096;2023-12-20T06:58:01;4.40;99.90
45549;DHT22;31270;48.328;10.096;2023-12-20T07:00:27;4.40;99.90
45549;DHT22;31270;48.328;10.096;2023-12-20T07:02:54;4.40;99.90
45549;DHT22;31270;48.328;10.096;2023-12-20T07:05:20;4.40;99.90
45549;DHT22;31270;48.328;10.096;2023-12-20T07:07:46;4.40;99.90
45549;DHT22;31270;48.328;10.096;2023-12-20T07:10:13;4.40;99.90
45549;DHT22;31270;48.328;10.096;2023-12-20T07:12:38;4.30;99.90
45549;DHT22;31270;48.328;10.096;2023-12-20T07:15:05;4.30;99.90
45549;DHT22;31270;48.328;10.096;2023-12-20T07:17:32;4.30;99.90
45549;DHT22;31270;48.328;10.096;2023-12-20T07:19:58;4.30;99.90
45549;DHT22;31270;48.328;10.096;2023-12-20T07:22:24;4.30;99.90
45549;DHT22;31270;48.328;10.096;2023-12-20T07:24:50;4.30;99.90
45549;DHT22;31270;48.328;10.096;2023-12-20T07:27:17;4.40;99.90
45549;DHT22;31270;48.328;10.096;2023-12-20T07:29:43;4.30;99.90
45549;DHT22;31270;48.328;10.096;2023-12-20T07:32:09;4.30;99.90
45549;DHT22;31270;48.328;10.096;2023-12-20T07:34:34;4.30;99.90
45549;DHT22;31270;48.328;10.096;2023-12-20T07:37:00;4.30;99.90
45549;DHT22;31270;48.328;10.096;2023-12-20T07:39:25;4.20;99.90
45549;DHT22;31270;48.328;10.096;2023-12-20T07:41:51;4.30;99.90
45549;DHT22;31270;48.328;10.096;2023-12-20T07:44:17;4.30;99.90
45549;DHT22;31270;48.328;10.096;2023-12-20T07:46:42;4.30;99.90
45549;DHT22;31270;48.328;10.096;2023-12-20T07:49:08;4.30;99.90
45549;DHT22;31270;48.328;10.096;2023-12-20T07:51:35;4.30;99.90
45549;DHT22;31270;48.328;10.096;2023-12-20T07:54:01;4.30;99.90
45549;DHT22;31270;48.328;10.096;2023-12-20T07:56:26;4.30;99.90
45549;DHT22;31270;48.328;10.096;2023-12-20T07:58:52;4.30;99.90
45549;DHT22;31270;48.328;10.096;2023-12-20T08:01:17;4.30;99.90
45549;DHT22;31270;48.328;10.096;2023-12-20T08:03:43;4.30;99.90
45549;DHT22;31270;48.328;10.096;2023-12-20T08:06:10;4.30;99.90
45549;DHT22;31270;48.328;10.096;2023-12-20T08:08:36;4.30;99.90
45549;DHT22;31270;48.328;10.096;2023-12-20T08:11:02;4.30;99.90
45549;DHT22;31270;48.328;10.096;2023-12-20T08:13:28;4.30;99.90
45549;DHT22;31270;48.328;10.096;2023-12-20T08:15:54;4.30;99.90
45549;DHT22;31270;48.328;10.096;2023-12-20T08:18:21;4.40;99.90
45549;DHT22;31270;48.328;10.096;2023-12-20T08:20:47;4.40;99.90
45549;DHT22;31270;48.328;10.096;2023-12-20T08:23:13;4.40;99.90
45549;DHT22;31270;48.328;10.096;2023-12-20T08:25:39;4.40;99.90
45549;DHT22;31270;48.328;10.096;2023-12-20T08:28:05;4.50;99.90
45549;DHT22;31270;48.328;10.096;2023-12-20T08:30:30;4.50;99.90
45549;DHT22;31270;48.328;10.096;2023-12-20T08:32:59;4.50;99.90
45549;DHT22;31270;48.328;10.096;2023-12-20T08:35:25;4.50;99.90
45549;DHT22;31270;48.328;10.096;2023-12-20T08:37:51;4.60;99.90
45549;DHT22;31270;48.328;10.096;2023-12-20T08:40:16;4.50;99.90
45549;DHT22;31270;48.328;10.096;2023-12-20T08:42:42;4.60;99.90
45549;DHT22;31270;48.328;10.096;2023-12-20T08:45:08;4.60;99.90
45549;DHT22;31270;48.328;10.096;2023-12-20T08:47:34;4.60;99.90
45549;DHT22;31270;48.328;10.096;2023-12-20T08:49:59;4.70;99.90
45549;DHT22;31270;48.328;10.096;2023-12-20T08:52:27;4.70;99.90
45549;DHT22;31270;48.328;10.096;2023-12-20T08:54:53;4.70;99.90
45549;DHT22;31270;48.328;10.096;2023-12-20T08:57:22;4.70;99.90
45549;DHT22;31270;48.328;10.096;2023-12-20T08:59:49;4.80;99.90
45549;DHT22;31270;48.328;10.096;2023-12-20T09:02:16;4.90;99.90
45549;DHT22;31270;48.328;10.096;2023-12-20T09:04:42;4.90;99.90
45549;DHT22;31270;48.328;10.096;2023-12-20T09:07:21;4.90;99.90
45549;DHT22;31270;48.328;10.096;2023-12-20T09:09:47;5.00;99.90
45549;DHT22;31270;48.328;10.096;2023-12-20T09:12:12;5.00;99.90
45549;DHT22;31270;48.328;10.096;2023-12-20T09:14:38;5.00;99.90
45549;DHT22;31270;48.328;10.096;2023-12-20T09:17:03;5.00;99.90
45549;DHT22;31270;48.328;10.096;2023-12-20T09:19:29;5.00;99.90
45549;DHT22;31270;48.328;10.096;2023-12-20T09:21:55;5.00;99.90
45549;DHT22;31270;48.328;10.096;2023-12-20T09:24:20;5.10;99.90
45549;DHT22;31270;48.328;10.096;2023-12-20T09:26:46;5.10;99.90
45549;DHT22;31270;48.328;10.096;2023-12-20T09:29:18;5.20;99.90
45549;DHT22;31270;48.328;10.096;2023-12-20T09:31:44;5.20;99.90
45549;DHT22;31270;48.328;10.096;2023-12-20T09:34:14;5.20;99.90
45549;DHT22;31270;48.328;10.096;2023-12-20T09:36:40;5.10;99.90
45549;DHT22;31270;48.328;10.096;2023-12-20T09:39:12;5.20;99.90
45549;DHT22;31270;48.328;10.096;2023-12-20T09:41:42;5.50;99.90
45549;DHT22;31270;48.328;10.096;2023-12-20T09:44:08;5.40;99.90
45549;DHT22;31270;48.328;10.096;2023-12-20T09:46:38;5.50;99.90
45549;DHT22;31270;48.328;10.096;2023-12-20T09:49:05;5.50;99.90
45549;DHT22;31270;48.328;10.096;2023-12-20T09:51:31;5.50;99.90
45549;DHT22;31270;48.328;10.096;2023-12-20T09:53:59;5.60;99.90
45549;DHT22;31270;48.328;10.096;2023-12-20T09:56:25;5.60;99.90
45549;DHT22;31270;48.328;10.096;2023-12-20T09:58:51;5.70;99.90
45549;DHT22;31270;48.328;10.096;2023-12-20T10:01:17;5.80;99.90
45549;DHT22;31270;48.328;10.096;2023-12-20T10:03:44;5.70;99.90
45549;DHT22;31270;48.328;10.096;2023-12-20T10:06:10;5.70;99.90
45549;DHT22;31270;48.328;10.096;2023-12-20T10:08:36;5.70;99.90
45549;DHT22;31270;48.328;10.096;2023-12-20T10:11:02;5.60;99.90
45549;DHT22;31270;48.328;10.096;2023-12-20T10:13:29;5.60;99.90
45549;DHT22;31270;48.328;10.096;2023-12-20T10:15:55;5.60;99.90
45549;DHT22;31270;48.328;10.096;2023-12-20T10:18:21;5.60;99.90
45549;DHT22;31270;48.328;10.096;2023-12-20T10:20:47;5.70;99.90
45549;DHT22;31270;48.328;10.096;2023-12-20T10:23:13;5.70;99.90
45549;DHT22;31270;48.328;10.096;2023-12-20T10:25:39;5.80;99.90
45549;DHT22;31270;48.328;10.096;2023-12-20T10:28:11;5.80;99.90
45549;DHT22;31270;48.328;10.096;2023-12-20T10:30:38;5.90;99.90
45549;DHT22;31270;48.328;10.096;2023-12-20T10:33:06;5.90;99.90
45549;DHT22;31270;48.328;10.096;2023-12-20T10:35:35;5.80;99.90
45549;DHT22;31270;48.328;10.096;2023-12-20T10:38:03;5.80;99.90
45549;DHT22;31270;48.328;10.096;2023-12-20T10:40:30;5.90;99.90
45549;DHT22;31270;48.328;10.096;2023-12-20T10:42:56;5.90;99.90
45549;DHT22;31270;48.328;10.096;2023-12-20T10:45:24;6.00;99.90
45549;DHT22;31270;48.328;10.096;2023-12-20T10:47:50;6.00;99.90
45549;DHT22;31270;48.328;10.096;2023-12-20T10:50:16;6.00;99.90
45549;DHT22;31270;48.328;10.096;2023-12-20T10:52:42;6.00;99.90
45549;DHT22;31270;48.328;10.096;2023-12-20T10:55:10;6.20;99.90
45549;DHT22;31270;48.328;10.096;2023-12-20T10:57:36;6.10;99.90
45549;DHT22;31270;48.328;10.096;2023-12-20T11:00:03;6.10;99.90
45549;DHT22;31270;48.328;10.096;2023-12-20T11:02:32;6.00;99.90
45549;DHT22;31270;48.328;10.096;2023-12-20T11:05:22;6.00;99.90
45549;DHT22;31270;48.328;10.096;2023-12-20T11:08:03;6.00;99.90
45549;DHT22;31270;48.328;10.096;2023-12-20T11:10:51;6.00;99.90
45549;DHT22;31270;48.328;10.096;2023-12-20T11:13:43;5.60;99.90
45549;DHT22;31270;48.328;10.096;2023-12-20T11:16:10;5.40;99.90
45549;DHT22;31270;48.328;10.096;2023-12-20T11:18:35;5.00;99.90
45549;DHT22;31270;48.328;10.096;2023-12-20T11:21:04;4.90;99.90
45549;DHT22;31270;48.328;10.096;2023-12-20T11:23:30;4.90;99.90
45549;DHT22;31270;48.328;10.096;2023-12-20T11:25:59;4.80;99.90
45549;DHT22;31270;48.328;10.096;2023-12-20T11:28:27;4.80;99.90
45549;DHT22;31270;48.328;10.096;2023-12-20T11:30:58;4.80;99.90
45549;DHT22;31270;48.328;10.096;2023-12-20T11:33:36;4.90;99.90
45549;DHT22;31270;48.328;10.096;2023-12-20T11:36:02;4.90;99.90
45549;DHT22;31270;48.328;10.096;2023-12-20T11:38:36;4.90;99.90
45549;DHT22;31270;48.328;10.096;2023-12-20T11:41:05;4.90;99.90
45549;DHT22;31270;48.328;10.096;2023-12-20T11:43:35;4.90;99.90
45549;DHT22;31270;48.328;10.096;2023-12-20T11:46:08;4.90;99.90
45549;DHT22;31270;48.328;10.096;2023-12-20T11:48:39;4.90;99.90
45549;DHT22;31270;48.328;10.096;2023-12-20T11:51:12;5.00;99.90
45549;DHT22;31270;48.328;10.096;2023-12-20T11:53:39;5.20;99.90
45549;DHT22;31270;48.328;10.096;2023-12-20T11:56:08;5.20;99.90
45549;DHT22;31270;48.328;10.096;2023-12-20T11:58:35;5.20;99.90
45549;DHT22;31270;48.328;10.096;2023-12-20T12:01:01;5.30;99.90
45549;DHT22;31270;48.328;10.096;2023-12-20T12:03:32;5.40;99.90
45549;DHT22;31270;48.328;10.096;2023-12-20T12:05:58;5.50;99.90
45549;DHT22;31270;48.328;10.096;2023-12-20T12:08:23;5.60;99.90
45549;DHT22;31270;48.328;10.096;2023-12-20T12:10:49;5.70;99.90
45549;DHT22;31270;48.328;10.096;2023-12-20T12:13:15;5.60;99.90
45549;DHT22;31270;48.328;10.096;2023-12-20T12:15:41;5.60;99.90
45549;DHT22;31270;48.328;10.096;2023-12-20T12:18:07;5.50;99.90
45549;DHT22;31270;48.328;10.096;2023-12-20T12:20:33;5.50;99.90
45549;DHT22;31270;48.328;10.096;2023-12-20T12:23:00;5.50;99.90
45549;DHT22;31270;48.328;10.096;2023-12-20T12:25:26;5.60;99.90
45549;DHT22;31270;48.328;10.096;2023-12-20T12:27:53;5.60;99.90
45549;DHT22;31270;48.328;10.096;2023-12-20T12:30:19;5.70;99.90
45549;DHT22;31270;48.328;10.096;2023-12-20T12:32:45;5.80;99.90
45549;DHT22;31270;48.328;10.096;2023-12-20T12:35:11;5.70;99.90
45549;DHT22;31270;48.328;10.096;2023-12-20T12:37:40;5.50;99.90
45549;DHT22;31270;48.328;10.096;2023-12-20T12:40:11;5.50;99.90
45549;DHT22;31270;48.328;10.096;2023-12-20T12:42:38;5.40;99.90
45549;DHT22;31270;48.328;10.096;2023-12-20T12:45:04;5.30;99.90
45549;DHT22;31270;48.328;10.096;2023-12-20T12:47:31;5.30;99.90
45549;DHT22;31270;48.328;10.096;2023-12-20T12:49:57;5.20;99.90
45549;DHT22;31270;48.328;10.096;2023-12-20T12:52:22;5.20;99.90
45549;DHT22;31270;48.328;10.096;2023-12-20T12:54:48;5.10;99.90
45549;DHT22;31270;48.328;10.096;2023-12-20T12:57:14;5.00;99.90
45549;DHT22;31270;48.328;10.096;2023-12-20T12:59:42;4.90;99.90
45549;DHT22;31270;48.328;10.096;2023-12-20T13:02:08;4.90;99.90
45549;DHT22;31270;48.328;10.096;2023-12-20T13:04:33;4.90;99.90
45549;DHT22;31270;48.328;10.096;2023-12-20T13:06:59;4.90;99.90
45549;DHT22;31270;48.328;10.096;2023-12-20T13:09:25;4.80;99.90
45549;DHT22;31270;48.328;10.096;2023-12-20T13:11:51;4.90;99.90
45549;DHT22;31270;48.328;10.096;2023-12-20T13:14:16;4.90;99.90
45549;DHT22;31270;48.328;10.096;2023-12-20T13:16:42;4.90;99.90
45549;DHT22;31270;48.328;10.096;2023-12-20T13:19:08;4.90;99.90
45549;DHT22;31270;48.328;10.096;2023-12-20T13:21:35;4.90;99.90
45549;DHT22;31270;48.328;10.096;2023-12-20T13:24:01;4.90;99.90
45549;DHT22;31270;48.328;10.096;2023-12-20T13:26:26;4.90;99.90
45549;DHT22;31270;48.328;10.096;2023-12-20T13:28:53;4.90;99.90
45549;DHT22;31270;48.328;10.096;2023-12-20T13:31:19;4.90;99.90
45549;DHT22;31270;48.328;10.096;2023-12-20T13:33:45;4.90;99.90
45549;DHT22;31270;48.328;10.096;2023-12-20T13:36:11;4.90;99.90
45549;DHT22;31270;48.328;10.096;2023-12-20T13:38:37;4.90;99.90
45549;DHT22;31270;48.328;10.096;2023-12-20T13:41:03;5.00;99.90
45549;DHT22;31270;48.328;10.096;2023-12-20T13:43:30;5.00;99.90
45549;DHT22;31270;48.328;10.096;2023-12-20T13:45:58;4.90;99.90
45549;DHT22;31270;48.328;10.096;2023-12-20T13:48:24;4.90;99.90
45549;DHT22;31270;48.328;10.096;2023-12-20T13:50:49;5.00;99.90
45549;DHT22;31270;48.328;10.096;2023-12-20T13:53:15;4.90;99.90
45549;DHT22;31270;48.328;10.096;2023-12-20T13:55:40;4.90;99.90
45549;DHT22;31270;48.328;10.096;2023-12-20T13:58:06;4.90;99.90
45549;DHT22;31270;48.328;10.096;2023-12-20T14:00:32;4.90;99.90
45549;DHT22;31270;48.328;10.096;2023-12-20T14:03:00;4.90;99.90
45549;DHT22;31270;48.328;10.096;2023-12-20T14:05:27;4.80;99.90
45549;DHT22;31270;48.328;10.096;2023-12-20T14:07:53;4.70;99.90
45549;DHT22;31270;48.328;10.096;2023-12-20T14:10:19;4.70;99.90
45549;DHT22;31270;48.328;10.096;2023-12-20T14:12:44;4.60;99.90
45549;DHT22;31270;48.328;10.096;2023-12-20T14:15:11;4.60;99.90
45549;DHT22;31270;48.328;10.096;2023-12-20T14:17:39;4.60;99.90
45549;DHT22;31270;48.328;10.096;2023-12-20T14:20:08;4.60;99.90
45549;DHT22;31270;48.328;10.096;2023-12-20T14:22:35;4.60;99.90
45549;DHT22;31270;48.328;10.096;2023-12-20T14:25:01;4.60;99.90
45549;DHT22;31270;48.328;10.096;2023-12-20T14:27:28;4.60;99.90
45549;DHT22;31270;48.328;10.096;2023-12-20T14:29:54;4.60;99.90
45549;DHT22;31270;48.328;10.096;2023-12-20T14:32:20;4.60;99.90
45549;DHT22;31270;48.328;10.096;2023-12-20T14:34:45;4.60;99.90
45549;DHT22;31270;48.328;10.096;2023-12-20T14:37:11;4.60;99.90
45549;DHT22;31270;48.328;10.096;2023-12-20T14:39:37;4.60;99.90
45549;DHT22;31270;48.328;10.096;2023-12-20T14:42:10;4.50;99.90
45549;DHT22;31270;48.328;10.096;2023-12-20T14:44:42;4.50;99.90
45549;DHT22;31270;48.328;10.096;2023-12-20T14:47:08;4.50;99.90
45549;DHT22;31270;48.328;10.096;2023-12-20T14:49:34;4.50;99.90
45549;DHT22;31270;48.328;10.096;2023-12-20T14:52:00;4.40;99.90
45549;DHT22;31270;48.328;10.096;2023-12-20T14:54:26;4.30;99.90
45549;DHT22;31270;48.328;10.096;2023-12-20T14:56:51;4.30;99.90
45549;DHT22;31270;48.328;10.096;2023-12-20T14:59:17;4.30;99.90
45549;DHT22;31270;48.328;10.096;2023-12-20T15:01:45;4.20;99.90
45549;DHT22;31270;48.328;10.096;2023-12-20T15:04:11;4.20;99.90
45549;DHT22;31270;48.328;10.096;2023-12-20T15:06:37;4.20;99.90
45549;DHT22;31270;48.328;10.096;2023-12-20T15:09:03;4.20;99.90
45549;DHT22;31270;48.328;10.096;2023-12-20T15:11:31;4.20;99.90
45549;DHT22;31270;48.328;10.096;2023-12-20T15:13:57;4.20;99.90
45549;DHT22;31270;48.328;10.096;2023-12-20T15:16:25;4.20;99.90
45549;DHT22;31270;48.328;10.096;2023-12-20T15:18:51;4.20;99.90
45549;DHT22;31270;48.328;10.096;2023-12-20T15:21:19;4.20;99.90
45549;DHT22;31270;48.328;10.096;2023-12-20T15:23:44;4.10;99.90
45549;DHT22;31270;48.328;10.096;2023-12-20T15:26:19;4.10;99.90
45549;DHT22;31270;48.328;10.096;2023-12-20T15:28:44;4.00;99.90